หน้าหลัก
METAR-TAF:

METAR-TAF

ท่าอากาศยาน :

ท่าอากาศยานนานาชาติปักกิ่ง

ปักกิ่ง, จีน

ละติจูด: 39-56N, ลองจิจูด: 116-17E, ความสูง: 55 ม.

การสังเกตสภาพอากาศปัจจุบัน

รายงานได้ทำขึ้นเมื่อ 30 นาทีที่แล้ว ณ เวลา 06:00 UTC
ลม 8 นอตจากใต้, แปรผันระหว่างใต้/ตะวันออกเฉียงใต้ และตะวันตก/ตะวันตกเฉียงใต้
อุณหภูมิ 26°C
ความชื้น 48%
ความกดอากาศ 1011 hPa
ทัศนวิสัย 10 กม. หรือมากกว่า
ไม่มีเมฆต่ำกว่า 1,500 ม. และไม่มีเมฆคิวมูโลนิมบัส

METAR: ZBAA 130600Z 19004MPS 160V240 CAVOK 26/14 Q1011 NOSIG

เวลา: 14:30 (06:30 UTC)

การพยากรณ์

รายงานได้ทำขึ้นเมื่อ 3 ชั่วโมงและ 28 นาทีที่แล้ว ณ เวลา 03:02 UTC
การพยากรณ์มีผลตั้งแต่วันที่ 13 ณ เวลา 06 UTC จนถึงวันที่ 14 ณ เวลา 06 UTC
ลม 8 นอตจากใต้
ทัศนวิสัย: 5000 ม.
หมอกน้ำค้าง,

TAF: ZBAA 130302Z 1306/1406 18004MPS 5000 BR NSC TX26/1307Z TN15/1321Z

สังเกตการณ์สภาพอากาศและพยากรณ์อากาศของสนามบินมากกว่า 4000 แห่ง (รายงาน METAR และ TAF).

สถานีที่ดูได้จะแสดงไว้ด้วยจุดสีเหลืองและสีแดงบนแผนที่.

เลื่อนเมาส์ไปเหนือจุดเพื่อดูชื่อสถานี.

แล้วคลิกเพื่อดูสังเกตการณ์และการพยากรณ์สภาพอากาศ.

ในการเปลี่ยนแผนที่: คลิกที่ปุ่มสีเขียวที่มีกากบาทสีดำเพื่อซูมเข้า; ที่ปุ่มสีเขียวที่มีขีดเพื่อซูมออก; หรือที่ลูกศรสีเขียวเพื่อไปยังแผนที่ที่อยู่ติดกัน.


METAR-TAF: